This is the latest recevied weather packets stored in our database for station/object F1ZTH-10. If no packets are shown the sender has not sent any weather packets the latest 10 day(s).
| Time | Temp. | Humidity | Pressure | Rain* | Wind** | Luminosity | Snow |
|---|---|---|---|---|---|---|---|
| 1788037577 | 21.11° C | 53% | 977 hPa | - | - | - | - |
| 1788036677 | 21.11° C | 53% | 977 hPa | - | - | - | - |
| 1788035777 | 21.67° C | 53% | 977 hPa | - | - | - | - |
| 1788034877 | 21.67° C | 52% | 977 hPa | - | - | - | - |
| 1788033977 | 22.22° C | 51% | 977 hPa | - | - | - | - |
| 1788033077 | 22.22° C | 50% | 977 hPa | - | - | - | - |
| 1788032177 | 22.78° C | 49% | 977 hPa | - | - | - | - |
| 1788031277 | 23.33° C | 48% | 977 hPa | - | - | - | - |
| 1788030377 | 23.89° C | 47% | 977 hPa | - | - | - | - |
| 1788029477 | 24.44° C | 46% | 976 hPa | - | - | - | - |
| 1788028577 | 25° C | 45% | 976 hPa | - | - | - | - |
| 1788027677 | 26.11° C | 44% | 976 hPa | - | - | - | - |
| 1788026777 | 27.78° C | 41% | 976 hPa | - | - | - | - |
| 1788025877 | 28.89° C | 40% | 976 hPa | - | - | - | - |
| 1788024977 | 27.22° C | 42% | 976 hPa | - | - | - | - |
| 1788024077 | 27.78° C | 42% | 976 hPa | - | - | - | - |
| 1788023177 | 28.33° C | 42% | 976 hPa | - | - | - | - |
| 1788022277 | 29.44° C | 41% | 976 hPa | - | - | - | - |
| 1788021377 | 31.67° C | 39% | 976 hPa | - | - | - | - |
| 1788020477 | 32.78° C | 39% | 976 hPa | - | - | - | - |
| 1788018676 | 33.89° C | 37% | 976 hPa | - | - | - | - |
| 1788017776 | 33.89° C | 36% | 976 hPa | - | - | - | - |
| 1788016876 | 32.22° C | 38% | 977 hPa | - | - | - | - |
| 1788015976 | 31.11° C | 39% | 977 hPa | - | - | - | - |
| 1788015076 | 31.11° C | 39% | 977 hPa | - | - | - | - |
* Rain since midnight (hover to see other rain measurements)
** Current wind speed in m/s (hover to see current wind gust speed)